createdAt,value
2018-11-20T00:00:00.252Z,1.95
2018-11-20T00:02:53.926Z,1.95
2018-11-20T00:06:02.848Z,1.98
2018-11-20T00:08:53.110Z,2.00
2018-11-20T00:11:47.522Z,2.00
2018-11-20T00:14:46.513Z,2.05
2018-11-20T00:17:34.176Z,2.03
2018-11-20T00:20:30.288Z,2.02
2018-11-20T00:23:23.865Z,2.08
2018-11-20T00:26:15.633Z,2.06
2018-11-20T00:28:58.087Z,2.06
2018-11-20T00:32:00.459Z,2.06
2018-11-20T00:34:52.734Z,2.10
2018-11-20T00:37:57.623Z,2.07
2018-11-20T00:40:50.079Z,2.06
2018-11-20T00:43:55.043Z,2.06
2018-11-20T00:46:57.576Z,2.05
2018-11-20T00:49:52.180Z,2.01
2018-11-20T00:52:46.466Z,1.99
2018-11-20T00:56:21.204Z,2.06
2018-11-20T00:59:22.967Z,2.03
2018-11-20T01:02:14.251Z,1.99
2018-11-20T01:05:19.276Z,2.00
2018-11-20T01:08:18.965Z,1.97
2018-11-20T01:11:10.063Z,1.98
2018-11-20T01:14:04.767Z,1.93
2018-11-20T01:17:00.793Z,1.97
2018-11-20T01:19:57.212Z,1.97
2018-11-20T01:22:50.785Z,1.97
2018-11-20T01:25:43.018Z,2.01
2018-11-20T01:28:33.880Z,2.02
2018-11-20T01:31:29.748Z,2.01
2018-11-20T01:34:28.852Z,1.99
2018-11-20T01:37:25.688Z,1.99
2018-11-20T01:40:05.768Z,2.02
2018-11-20T01:43:14.480Z,2.03
2018-11-20T01:46:09.824Z,2.03
2018-11-20T01:48:52.939Z,2.02
2018-11-20T01:51:50.993Z,1.99
2018-11-20T01:55:02.195Z,1.97
2018-11-20T01:58:01.601Z,1.99
2018-11-20T02:00:53.841Z,1.97
2018-11-20T02:03:45.318Z,1.96
2018-11-20T02:06:44.565Z,2.00
2018-11-20T02:09:41.007Z,1.99
2018-11-20T02:12:47.568Z,2.06
2018-11-20T02:15:34.996Z,2.00
2018-11-20T02:18:33.686Z,2.07
2018-11-20T02:21:33.096Z,2.03
2018-11-20T02:24:23.687Z,2.10
2018-11-20T02:27:14.807Z,2.12
2018-11-20T02:30:11.140Z,2.09
2018-11-20T02:33:08.130Z,2.12
2018-11-20T02:36:11.245Z,2.11
2018-11-20T09:59:12.463Z,1.60
2018-11-20T10:02:11.103Z,1.58
2018-11-20T10:04:51.683Z,1.51
2018-11-20T10:07:59.265Z,1.55
2018-11-20T10:10:57.972Z,1.57
2018-11-20T10:14:03.289Z,1.55
2018-11-20T10:17:04.548Z,1.57
2018-11-20T10:19:56.009Z,1.58
2018-11-20T10:22:47.598Z,1.52
2018-11-20T10:25:41.210Z,1.56
2018-11-20T10:28:33.311Z,1.52
2018-11-20T10:31:37.406Z,1.53
2018-11-20T10:34:39.120Z,1.51
2018-11-20T10:37:25.733Z,1.56
2018-11-20T10:40:26.693Z,1.54
2018-11-20T10:43:37.192Z,1.55
2018-11-20T10:46:28.443Z,1.58
2018-11-20T10:49:39.092Z,1.63
2018-11-20T10:52:34.590Z,1.66
2018-11-20T10:55:41.927Z,1.68
2018-11-20T10:58:33.007Z,1.80
2018-11-20T11:01:40.726Z,1.79
2018-11-20T11:04:38.908Z,1.80
2018-11-20T11:07:29.791Z,1.89
2018-11-20T11:10:12.149Z,1.85
2018-11-20T11:13:04.434Z,1.87
2018-11-20T11:15:55.220Z,1.90
2018-11-20T11:18:52.279Z,1.85
2018-11-20T11:21:49.671Z,1.88
2018-11-20T11:24:57.003Z,1.88
2018-11-20T11:28:04.857Z,1.91
2018-11-20T11:31:03.255Z,1.87
2018-11-20T11:33:54.186Z,1.83
2018-11-20T11:36:42.470Z,1.91
2018-11-20T11:39:43.372Z,1.89
2018-11-20T11:42:34.014Z,1.87
2018-11-20T11:45:17.692Z,1.77
2018-11-20T11:48:14.034Z,1.86
2018-11-20T11:51:14.478Z,1.83
2018-11-20T11:54:06.912Z,1.81
2018-11-20T11:57:02.096Z,1.79
2018-11-20T11:59:53.946Z,1.78
2018-11-20T12:05:46.812Z,1.78
2018-11-20T12:08:57.079Z,1.88
2018-11-20T12:11:39.916Z,1.92
2018-11-20T12:14:40.742Z,1.91
2018-11-20T12:17:33.092Z,1.93
2018-11-20T12:20:24.021Z,1.87
2018-11-20T12:23:31.409Z,1.90
2018-11-20T12:26:25.377Z,1.93
2018-11-20T12:29:23.842Z,1.90
2018-11-20T12:32:26.647Z,1.94
2018-11-20T12:35:21.076Z,1.95
2018-11-20T12:38:09.998Z,1.99
2018-11-20T12:41:01.678Z,2.00
2018-11-20T12:43:54.850Z,1.99
2018-11-20T12:46:46.212Z,2.03
2018-11-20T12:49:54.029Z,1.94
2018-11-20T12:52:52.586Z,1.95
2018-11-20T12:55:43.534Z,1.97
2018-11-20T12:58:34.609Z,2.01
2018-11-20T13:01:24.746Z,2.03
2018-11-20T13:04:15.139Z,1.99
2018-11-20T13:07:13.261Z,2.00
2018-11-20T13:10:04.761Z,2.03
2018-11-20T13:12:56.597Z,2.01
2018-11-20T13:16:00.248Z,2.02
2018-11-20T13:18:54.216Z,1.98
2018-11-20T13:21:44.936Z,1.95
2018-11-20T13:24:37.240Z,1.90
2018-11-20T13:27:28.144Z,1.88
2018-11-20T13:30:19.178Z,1.86
2018-11-20T13:33:10.098Z,1.82
2018-11-20T13:36:01.629Z,1.82
2018-11-20T13:39:06.121Z,1.82
2018-11-20T13:41:57.613Z,1.81
2018-11-20T13:44:55.710Z,1.76
2018-11-20T13:47:46.310Z,1.72
2018-11-20T13:50:39.065Z,1.69
2018-11-20T13:53:36.881Z,1.54
2018-11-20T13:56:44.204Z,1.42
2018-11-20T13:59:36.169Z,1.26
2018-11-20T14:02:26.283Z,1.16
2018-11-20T14:05:22.311Z,0.97
2018-11-20T14:08:21.896Z,0.87
2018-11-20T14:11:14.869Z,0.68
2018-11-20T14:14:06.466Z,0.63
2018-11-20T14:16:57.433Z,0.50
2018-11-20T14:20:05.392Z,0.40
2018-11-20T14:23:04.074Z,0.22
2018-11-20T14:26:03.089Z,0.10
2018-11-20T14:28:50.505Z,0.09
2018-11-20T14:32:01.252Z,0.05
2018-11-20T14:35:02.244Z,0.05
2018-11-20T14:38:00.535Z,0.05
2018-11-20T14:40:51.120Z,0.05
2018-11-20T14:43:56.352Z,0.10
2018-11-20T14:46:47.472Z,0.06
2018-11-20T14:49:49.225Z,0.04
2018-11-20T14:52:51.304Z,0.09
2018-11-20T14:55:52.272Z,0.05
2018-11-20T15:01:26.169Z,0.50
2018-11-20T15:04:18.339Z,0.06
2018-11-20T15:07:19.385Z,-0.01
2018-11-20T15:10:10.976Z,-0.01
2018-11-20T15:13:04.293Z,-0.03
2018-11-20T15:15:58.485Z,-0.06
2018-11-20T15:19:13.250Z,-0.07
2018-11-20T15:22:08.772Z,-0.10
2018-11-20T15:25:03.961Z,-0.11
2018-11-20T15:28:00.117Z,-0.09
2018-11-20T15:30:58.310Z,-0.10
2018-11-20T15:33:43.798Z,-0.12
2018-11-20T15:36:33.569Z,-0.11
2018-11-20T15:39:17.436Z,-0.14
2018-11-20T15:42:13.933Z,-0.09
2018-11-20T15:45:23.983Z,-0.12
2018-11-20T15:48:24.855Z,-0.16
2018-11-20T15:51:19.522Z,-0.15
2018-11-20T15:54:21.602Z,-0.11
2018-11-20T15:57:11.069Z,-0.13
2018-11-20T16:00:03.239Z,-0.08
2018-11-20T16:02:55.177Z,-0.09
2018-11-20T16:05:46.880Z,-0.08
2018-11-20T16:08:54.813Z,-0.03
2018-11-20T16:11:47.375Z,-0.04
2018-11-20T16:14:42.683Z,-0.04
2018-11-20T16:17:41.099Z,-0.02
2018-11-20T16:20:39.562Z,0.00
2018-11-20T16:23:34.986Z,0.07
2018-11-20T16:26:30.810Z,0.07
2018-11-20T16:29:27.864Z,0.04
2018-11-20T16:32:19.056Z,0.08
2018-11-20T16:35:00.653Z,0.08
2018-11-20T16:38:07.679Z,0.08
2018-11-20T16:41:06.049Z,0.11
2018-11-20T16:44:01.228Z,0.17
2018-11-20T16:46:56.950Z,0.15
2018-11-20T16:49:53.015Z,0.17
2018-11-20T16:52:52.579Z,0.14
2018-11-20T16:55:46.725Z,0.14
2018-11-20T16:58:42.606Z,0.22
2018-11-20T17:01:36.237Z,0.22
2018-11-20T17:04:28.514Z,0.25
2018-11-20T17:07:30.653Z,0.29
2018-11-20T17:10:17.407Z,0.27
2018-11-20T17:13:10.417Z,0.30
2018-11-20T17:15:59.202Z,0.34
2018-11-20T17:18:50.788Z,0.33
2018-11-20T17:21:41.418Z,0.39
2018-11-20T17:24:32.542Z,0.38
2018-11-20T17:27:24.244Z,0.41
2018-11-20T17:30:14.851Z,0.41
2018-11-20T17:33:07.704Z,0.46
2018-11-20T17:36:08.187Z,0.42
2018-11-20T17:38:59.341Z,0.48
2018-11-20T17:41:45.744Z,0.48
2018-11-20T17:44:38.613Z,0.54
2018-11-20T17:47:43.120Z,0.53
2018-11-20T17:50:27.369Z,0.53
2018-11-20T17:53:19.830Z,0.57
2018-11-20T17:56:16.876Z,0.55
2018-11-20T17:59:08.194Z,0.54
2018-11-20T18:01:59.103Z,0.58
2018-11-20T18:04:42.741Z,0.57
2018-11-20T18:07:45.343Z,0.62
2018-11-20T18:10:36.756Z,0.66
2018-11-20T18:13:18.071Z,0.69
2018-11-20T18:16:16.848Z,0.68
2018-11-20T18:19:04.684Z,0.67
2018-11-20T18:22:02.760Z,0.70
2018-11-20T18:24:57.627Z,0.65
2018-11-20T18:27:52.331Z,0.65
2018-11-20T18:30:44.336Z,0.66
2018-11-20T18:33:33.745Z,0.65
2018-11-20T18:36:21.176Z,0.71
2018-11-20T18:39:32.066Z,0.69
2018-11-20T18:42:24.592Z,0.68
2018-11-20T18:45:16.935Z,0.68
2018-11-20T18:48:10.509Z,0.72
2018-11-20T18:51:01.715Z,0.68
2018-11-20T18:53:53.038Z,0.69
2018-11-20T18:56:46.094Z,0.67
2018-11-20T18:59:56.984Z,0.70
2018-11-20T19:02:48.287Z,0.71
2018-11-20T19:05:35.803Z,0.73
2018-11-20T19:08:37.156Z,0.77
2018-11-20T19:11:42.404Z,0.73
2018-11-20T19:14:33.518Z,0.70
2018-11-20T19:17:31.617Z,0.74
2018-11-20T19:20:30.597Z,0.76
2018-11-20T19:23:29.214Z,0.71
2018-11-20T19:26:20.905Z,0.69
2018-11-20T19:29:24.961Z,0.73
2018-11-20T19:32:14.810Z,0.76
2018-11-20T19:35:10.418Z,0.77
2018-11-20T19:37:54.060Z,0.79
2018-11-20T19:41:01.238Z,0.77
2018-11-20T19:43:56.860Z,0.79
2018-11-20T19:46:52.203Z,0.82
2018-11-20T19:49:35.304Z,0.84
2018-11-20T19:52:26.511Z,0.83
2018-11-20T19:55:29.164Z,0.84
2018-11-20T19:58:24.306Z,0.87
2018-11-20T20:01:15.544Z,0.94
2018-11-20T20:04:04.496Z,0.90
2018-11-20T20:06:54.164Z,0.92
2018-11-20T20:09:45.326Z,0.89
2018-11-20T20:12:34.688Z,0.86
2018-11-20T20:15:35.729Z,0.86
2018-11-20T20:18:36.657Z,0.88
2018-11-20T20:21:29.187Z,0.89
2018-11-20T20:24:32.280Z,0.93
2018-11-20T20:27:23.493Z,0.90
2018-11-20T20:30:13.994Z,0.91
2018-11-20T20:33:17.945Z,0.91
2018-11-20T20:36:09.508Z,0.88
2018-11-20T20:39:17.539Z,0.89
2018-11-20T20:42:08.857Z,0.95
2018-11-20T20:45:09.888Z,0.95
2018-11-20T20:47:54.683Z,0.97
2018-11-20T20:50:55.890Z,0.97
2018-11-20T20:53:47.994Z,1.00
2018-11-20T20:56:42.601Z,0.98
2018-11-20T20:59:35.796Z,0.96
2018-11-20T21:02:31.052Z,1.00
2018-11-20T21:05:23.595Z,0.96
2018-11-20T21:08:15.220Z,0.96
2018-11-20T21:11:19.626Z,0.93
2018-11-20T21:14:19.107Z,0.93
2018-11-20T21:17:17.288Z,0.94
2018-11-20T21:20:18.759Z,0.94
2018-11-20T21:23:16.787Z,0.89
2018-11-20T21:26:04.104Z,0.88
2018-11-20T21:28:55.394Z,0.89
2018-11-20T21:32:02.893Z,0.86
2018-11-20T21:35:10.066Z,0.85
2018-11-20T21:38:01.115Z,0.82
2018-11-20T21:41:02.945Z,0.82
2018-11-20T21:43:47.789Z,0.80
2018-11-20T21:46:55.274Z,0.79
2018-11-20T21:49:57.383Z,0.83
2018-11-20T21:52:48.691Z,0.82
2018-11-20T21:55:47.385Z,0.87
2018-11-20T21:58:48.920Z,0.92
2018-11-20T22:01:41.483Z,0.90
2018-11-20T22:04:26.136Z,0.95
2018-11-20T22:07:34.043Z,0.96
2018-11-20T22:10:29.000Z,0.99
2018-11-20T22:13:19.891Z,0.97
2018-11-20T22:16:11.209Z,0.97
2018-11-20T22:19:02.809Z,0.95
2018-11-20T22:21:54.153Z,0.94
2018-11-20T22:24:58.738Z,0.91
2018-11-20T22:28:06.959Z,0.89
2018-11-20T22:30:52.364Z,0.80
2018-11-20T22:33:46.203Z,0.74
2018-11-20T22:36:40.968Z,0.71
2018-11-20T22:39:25.559Z,0.66
2018-11-20T22:42:23.220Z,0.68
2018-11-20T22:45:15.281Z,0.67
2018-11-20T22:48:22.972Z,0.61
2018-11-20T22:51:14.420Z,0.60
2018-11-20T22:54:12.954Z,0.61
2018-11-20T22:56:59.940Z,0.62
2018-11-20T22:59:54.942Z,0.65
2018-11-20T23:02:39.828Z,0.62
2018-11-20T23:05:22.690Z,0.70
2018-11-20T23:07:56.490Z,0.66
2018-11-20T23:10:29.681Z,0.66
2018-11-20T23:13:02.976Z,0.70
2018-11-20T23:15:35.842Z,0.71
2018-11-20T23:18:08.959Z,0.72
2018-11-20T23:20:41.454Z,0.80
2018-11-20T23:23:14.346Z,0.82
2018-11-20T23:25:47.602Z,0.84
2018-11-20T23:28:20.779Z,0.93
2018-11-20T23:30:53.299Z,0.91
2018-11-20T23:33:26.183Z,0.93
2018-11-20T23:35:59.079Z,0.94
2018-11-20T23:38:32.190Z,0.98
2018-11-20T23:41:05.036Z,1.00
2018-11-20T23:43:37.821Z,1.03
2018-11-20T23:46:11.009Z,1.03
2018-11-20T23:48:44.291Z,1.03
2018-11-20T23:51:17.600Z,1.06
2018-11-20T23:53:49.650Z,1.08
2018-11-20T23:56:22.770Z,1.06
2018-11-20T23:58:54.855Z,1.05
